メインページ
METAR-TAF:

METAR-TAF

空港 :

仁川国際空港, 大韓民国

緯度: 37-28N, 経度: 126-27E, 海抜: 7m

現時点の気象観測

当レポートは33分前の12:30(UTC)に作成
の風 4kt
気温 0°C
湿度 55%
気圧 1028 hPa
視程10km以上
1,500メートル以下は雲なし、積乱雲なし

METAR: RKSI 241230Z 10004KT CAVOK M00/M08 Q1028 NOSIG

時間: 22:03 (13:03 UTC)

予報

当レポートは2時間3分前の11:00(UTC)に作成
予報は24日の 12時(UTC)から 25日の 18時(UTC)まで有効
東/北東の風 6kt
視程10km以上
高度3000ftの雲は散在している
24日の 19時(UTC)から 24日の 20時(UTC)まで徐々に
南/南東の風 8kt
高度1000ftの雲はほとんどない
高度2500ftの千切れ雲あり
高度10000ftの曇り
25日の 00時(UTC)から 25日の 01時(UTC)まで徐々に
南西の風 19kt、最大35ktの突風を伴う
視程: 6000m
小雨
25日の 09時(UTC)から 25日の 10時(UTC)まで徐々に
西/北西の風 13kt、最大25ktの突風を伴う
高度3000ftの雲は散在している
25日の 14時(UTC)から 25日の 15時(UTC)まで徐々に
の風 7kt

TAF: RKSI 241100Z 2412/2518 06006KT 9999 SCT030 TNM02/2419Z TX10/2505Z BECMG 2419/2420 16008KT FEW010 BKN025 OVC100 BECMG 2500/2501 23019G35KT 6000 -RA BECMG 2509/2510 30013G25KT NSW SCT030 BECMG 2514/2515 36007KT

4,000以上の空港の気象観測と天気予報(METAR報とTAF報)

利用可能な観測所は地図上に黄色い丸と赤い丸で示す。

丸の上にカーソルを重ねると観測所名を参照できる。

次にクリックすると気象観測と天気予報を参照できる。

マップの切り替え:黒色「×」印の緑ボタンをクリックして拡大、「-」印の緑ボタンをクリックして縮小、緑色の三角印をクリックして隣りの地図に切り替え


METAR-TAF: